Aviation Meteorology - National Center of Meteorology
Email: forecaster@adiamet.gov.ae
Website: www.avmet.ae

GULF METAR
METAR OMAA 161600Z 36010KT CAVOK 37/18 Q0998 NOSIG=
METAR OMAD 161600Z 36007KT 330V030 CAVOK 35/26 Q0999 NOSIG=
METAR OMAL 161600Z 01014KT CAVOK 42/07 Q1001 NOSIG=
METAR OMDB 161600Z 02008KT 350V070 CAVOK 41/12 Q0999 NOSIG=
METAR OMDW 161600Z 36008KT CAVOK 36/14 Q1000 NOSIG=
METAR OMSJ 161600Z 02002KT CAVOK 39/11 Q0999 NOSIG=
METAR OMRK 161500Z 34006KT CAVOK 39/20 Q0999 A2951=
METAR OMFJ 161600Z 13006KT 8000 NSC 34/27 Q1000 A2954=
METAR OMAW 161500Z AUTO 35012KT 9999 NCD 39/16 Q0998 A2948=
METAR OMAM 161500Z 03017KT CAVOK 38/19 Q0999 A2950=
METAR OMLW 161500Z AUTO 01010KT 340V040 8000 ////// 37/24 Q0999 A2951=
METAR OMDM 161500Z AUTO 34007KT 9999 ////// 40/10 Q0999 A2950=
METAR OMAH 161500Z AUTO 36015KT //// // ////// 33/28 Q0999 A2952=
METAR OMDL 161500Z 36009KT 340V040 8000 SKC 33/28 Q0999 A2950=
METAR OTBD 161600Z AUTO 03005KT CAVOK 35/24 Q1000 NOSIG=
METAR OTHH 161600Z AUTO 03006KT CAVOK 35/24 Q1000 NOSIG=
METAR OBBI 161600Z 06009KT CAVOK 34/26 Q1000 NOSIG=
METAR OOMS 161550Z 01003KT CAVOK 33/28 Q1000 NOSIG=
METAR OOSA 161550Z 20010KT 9999 SCT020 30/27 Q1004 NOSIG=
METAR OKKK 161500Z 14011KT CAVOK 41/12 Q1000 NOSIG=
 
GULF TAF
TAF OMAA 161100Z 1612/1718 34015KT 8000 NSC BECMG 1617/1619 04006KT BECMG 1703/1705 14007KT BECMG 1709/1711 34014KT BECMG 1716/1718 04006KT=
TAF OMAD 161100Z 1612/1718 34014KT 8000 NSC BECMG 1617/1619 04006KT BECMG 1703/1705 14007KT BECMG 1709/1711 34014KT BECMG 1716/1718 04006KT=
TAF OMAL 161100Z 1612/1718 32010KT 8000 FEW045 PROB30 TEMPO 1612/1615 VRB15G25KT 4000 SHRA BLDU FEW045TCU BECMG 1617/1619 04006KT BECMG 1701/1703 16012KT BECMG 1710/1712 33010KT PROB30 TEMPO 1710/1715 VRB15G25KT 4000 SHRA BLDU FEW045TCU=
TAF OMDB 161100Z 1612/1718 33012KT CAVOK BECMG 1618/1620 12005KT BECMG 1707/1709 33013KT=
TAF OMDW 161100Z 1612/1718 34014KT 8000 NSC BECMG 1618/1620 09005KT BECMG 1704/1706 19010KT BECMG 1709/1711 34015KT BECMG 1715/1717 02005KT=
TAF OMSJ 161100Z 1612/1718 33012KT CAVOK BECMG 1617/1619 12005KT BECMG 1707/1709 33013KT BECMG 1716/1718 05005KT=
TAF OMRK 161100Z 1612/1718 35012KT CAVOK BECMG 1615/1617 VRB02KT BECMG 1707/1709 34013KT BECMG 1715/1717 VRB02KT=
TAF OMFJ 161100Z 1612/1718 09008KT 8000 NSC BECMG 1614/1616 VRB03KT BECMG 1620/1622 29006KT BECMG 1705/1707 09008KT BECMG 1714/1716 VB03KT=
TAF OMAM 161125Z 1612/1718 35018KT 8000 NSC PROB30 TEMPO 1612/1615 VRB20G30KT 3000 BLDU FEW040TCU BECMG 1615/1617 03006KT BECMG 1702/1704 14005KT BECMG 1706/1708 VRB02KT BECMG 1710/1712 35015KT PROB30 TEMPO 1712/1714 35015G25KT 4000 BLDU BECMG 1715/1717 01005KT=
TAF OMLW 161125Z 1612/1718 34015KT 7000 NSC PROB30 TEMPO 1612/1615 VRB20G30KT 3000 BLDU FEW040TCU BECMG 1615/1617 05007KT BECMG 1704/1706 11006KT BECMG 1710/1712 02015KT PROB30 TEMPO 1712/1714 02015G25KT 4000 BLDU BECMG 1714/1716 01005KT=
TAF OMDM 161125Z 1612/1718 35015KT 8000 NSC PROB30 TEMPO 1612/1614 4000 DU BECMG 1614/1616 34005KT BECMG 1619/1621 07005KT BECMG 1700/1702 15005KT BECMG 1704/1706 VRB02KT BECMG 1708/1710 35015KT BECMG 1714/1716 33005KT=
TAF OMDL 161100Z 1612/1620 01011KT 7000 NSC=
TAF OBBI 161100Z 1612/1718 06007KT CAVOK BECMG 1702/1704 34010KT=
TAF OOMS 161100Z 1612/1718 05012KT 8000 FEW030 BECMG 1615/1617 VRB02KT BECMG 1706/1708 04012KT BECMG 1715/1717 VRB02KT=
TAF OOSA 161140Z 1612/1718 19015KT 9999 SCT015 BKN030=
TAF OKKK 161100Z 1612/1718 12010KT 7000 NSC TEMPO 1616/1704 VRB03KT =
 
Information made available by Zayed International Airport - Aviation Meteorology (NCM)
Printed on:16/06/2024-1602UTC


D:\Input Parser\Destinations\Final\11\OMAAL12181100850976718.txt
TAF OMAA 161100Z 1612/1718 34015KT 8000 NSC BECMG 1617/1619 04006KT BECMG 1703/1705 14007KT BECMG 1709/1711 34014KT BECMG 1716/1718 04006KT=

D:\Input Parser\Destinations\Final\11\OMADL121811001383181365.txt
TAF OMAD 161100Z 1612/1718 34014KT 8000 NSC BECMG 1617/1619 04006KT BECMG 1703/1705 14007KT BECMG 1709/1711 34014KT BECMG 1716/1718 04006KT=

D:\Input Parser\Destinations\Final\11\OMALL121811002106344759.txt
TAF OMAL 161100Z 1612/1718 32010KT 8000 FEW045 PROB30 TEMPO 1612/1615 VRB15G25KT 4000 SHRA BLDU FEW045TCU BECMG 1617/1619 04006KT BECMG 1701/1703 16012KT BECMG 1710/1712 33010KT PROB30 TEMPO 1710/1715 VRB15G25KT 4000 SHRA BLDU FEW045TCU=

D:\Input Parser\Destinations\Final\11\OMDBL121811002856291.txt
TAF OMDB 161100Z 1612/1718 33012KT CAVOK BECMG 1618/1620 12005KT BECMG 1707/1709 33013KT=

D:\Input Parser\Destinations\Final\11\OMDWL12181100953392493.txt
TAF OMDW 161100Z 1612/1718 34014KT 8000 NSC BECMG 1618/1620 09005KT BECMG 1704/1706 19010KT BECMG 1709/1711 34015KT BECMG 1715/1717 02005KT=

D:\Input Parser\Destinations\Final\11\OMSJL1218110070652500.txt
TAF OMSJ 161100Z 1612/1718 33012KT CAVOK BECMG 1617/1619 12005KT BECMG 1707/1709 33013KT BECMG 1716/1718 05005KT=

D:\Input Parser\Destinations\Final\11\OMRKL12181100240280752.txt
TAF OMRK 161100Z 1612/1718 35012KT CAVOK BECMG 1615/1617 VRB02KT BECMG 1707/1709 34013KT BECMG 1715/1717 VRB02KT=

D:\Input Parser\Destinations\Final\11\OMFJL12181100809673937.txt
TAF OMFJ 161100Z 1612/1718 09008KT 8000 NSC BECMG 1614/1616 VRB03KT BECMG 1620/1622 29006KT BECMG 1705/1707 09008KT BECMG 1714/1716 VB03KT=